This is the latest recevied weather packets stored in our database for station/object OM6ABF-11. If no packets are shown the sender has not sent any weather packets the latest 10 day(s).
| Time | Temp. | Humidity | Pressure | Rain* | Wind** | Luminosity | Snow |
|---|---|---|---|---|---|---|---|
| 1777680973 | 1.11° C | 84% | 1027.1 hPa | - | - | - | - |
| 1777680073 | 1.11° C | 83% | 1027.1 hPa | - | - | - | - |
| 1777679174 | 1.67° C | 83% | 1027 hPa | - | - | - | - |
| 1777678275 | 2.22° C | 82% | 1027 hPa | - | - | - | - |
| 1777677374 | 2.78° C | 81% | 1027.1 hPa | - | - | - | - |
| 1777676474 | 2.78° C | 81% | 1027 hPa | - | - | - | - |
| 1777675575 | 2.78° C | 81% | 1027 hPa | - | - | - | - |
| 1777674676 | 3.33° C | 79% | 1027 hPa | - | - | - | - |
| 1777673778 | 3.89° C | 78% | 1027.1 hPa | - | - | - | - |
| 1777672879 | 3.89° C | 78% | 1026.9 hPa | - | - | - | - |
| 1777671980 | 4.44° C | 77% | 1026.8 hPa | - | - | - | - |
| 1777671081 | 5° C | 76% | 1026.8 hPa | - | - | - | - |
| 1777670181 | 5.56° C | 75% | 1026.7 hPa | - | - | - | - |
| 1777669282 | 5.56° C | 75% | 1026.6 hPa | - | - | - | - |
| 1777668382 | 6.67° C | 70% | 1026.6 hPa | - | - | - | - |
| 1777667491 | 6.67° C | - | - | - | - | - | - |
| 1777667485 | 6.67° C | 70% | 1026.5 hPa | - | - | - | - |
| 1777666585 | 7.22° C | 70% | 1026.4 hPa | - | - | - | - |
| 1777665687 | 8.89° C | 61% | 1026.4 hPa | - | - | - | - |
| 1777664787 | 9.44° C | 59% | 1026.4 hPa | - | - | - | - |
| 1777663890 | 9.44° C | 60% | 1026.3 hPa | - | - | - | - |
| 1777662990 | 10.56° C | 56% | 1026.2 hPa | - | - | - | - |
| 1777662091 | 10.56° C | 57% | 1026.1 hPa | - | - | - | - |
| 1777661193 | 11.67° C | 52% | 1026 hPa | - | - | - | - |
| 1777660293 | 11.67° C | 53% | 1025.9 hPa | - | - | - | - |
* Rain since midnight (hover to see other rain measurements)
** Current wind speed in m/s (hover to see current wind gust speed)